createdAt,value
2023-01-01T00:00:40.358Z,37.03
2023-01-01T00:03:07.265Z,39.13
2023-01-01T00:05:34.208Z,36.37
2023-01-01T00:08:05.129Z,38.70
2023-01-01T00:10:33.010Z,40.67
2023-01-01T00:13:00.423Z,41.93
2023-01-01T00:15:28.535Z,47.73
2023-01-01T00:17:56.156Z,45.73
2023-01-01T00:20:23.566Z,38.20
2023-01-01T00:22:55.470Z,37.30
2023-01-01T00:25:23.397Z,35.07
2023-01-01T00:27:50.471Z,34.17
2023-01-01T00:30:17.594Z,31.17
2023-01-01T00:32:55.000Z,33.00
2023-01-01T00:35:26.970Z,33.53
2023-01-01T00:37:55.410Z,30.43
2023-01-01T00:40:22.987Z,29.50
2023-01-01T00:42:49.978Z,28.63
2023-01-01T00:45:21.311Z,28.98
2023-01-01T00:47:51.090Z,26.97
2023-01-01T00:50:18.603Z,25.47
2023-01-01T00:52:45.700Z,25.90
2023-01-01T00:55:12.715Z,27.80
2023-01-01T00:57:39.668Z,31.20
2023-01-01T01:00:08.198Z,34.20
2023-01-01T01:02:35.368Z,33.43
2023-01-01T01:05:04.625Z,34.33
2023-01-01T01:07:36.984Z,34.13
2023-01-01T01:10:04.839Z,36.70
2023-01-01T01:12:34.287Z,40.40
2023-01-01T01:15:01.534Z,40.23
2023-01-01T01:17:29.596Z,39.70
2023-01-01T01:19:56.660Z,38.80
2023-01-01T01:22:28.342Z,38.70
2023-01-01T01:24:55.771Z,40.30
2023-01-01T01:27:22.754Z,41.67
2023-01-01T01:29:49.644Z,42.20
2023-01-01T01:32:16.496Z,39.93
2023-01-01T01:34:43.432Z,38.70
2023-01-01T01:37:10.354Z,35.50
2023-01-01T01:39:37.477Z,36.27
2023-01-01T01:42:04.687Z,34.60
2023-01-01T01:44:49.548Z,34.30
2023-01-01T01:47:55.939Z,29.90
2023-01-01T01:50:32.231Z,26.70
2023-01-01T01:53:16.401Z,22.87
2023-01-01T01:55:54.389Z,23.37
2023-01-01T01:58:21.843Z,21.40
2023-01-01T02:00:49.308Z,22.20
2023-01-01T02:03:23.004Z,21.30
2023-01-01T02:05:51.580Z,21.57
2023-01-01T02:08:19.700Z,20.90
2023-01-01T02:10:47.061Z,22.70
2023-01-01T02:13:14.322Z,20.97
2023-01-01T02:16:16.877Z,20.53
2023-01-01T02:18:56.232Z,19.00
2023-01-01T02:21:31.703Z,20.13
2023-01-01T02:24:16.091Z,20.00
2023-01-01T02:26:59.452Z,18.00
2023-01-01T02:29:37.468Z,18.27
2023-01-01T02:32:13.283Z,19.40
2023-01-01T02:34:49.265Z,19.20
2023-01-01T02:37:18.561Z,20.13
2023-01-01T02:39:55.598Z,18.37
2023-01-01T02:42:28.064Z,18.63
2023-01-01T02:44:57.963Z,18.57
2023-01-01T02:47:24.856Z,19.97
2023-01-01T02:50:08.953Z,19.40
2023-01-01T02:53:03.128Z,21.87
2023-01-01T02:55:45.049Z,22.20
2023-01-01T02:58:48.608Z,22.27
2023-01-01T03:02:18.599Z,20.40
2023-01-01T03:05:18.988Z,22.90
2023-01-01T03:08:17.270Z,23.30
2023-01-01T03:11:15.879Z,22.10
2023-01-01T03:14:08.770Z,21.30
2023-01-01T03:17:27.697Z,22.67
2023-01-01T03:19:58.286Z,19.57
2023-01-01T03:25:13.975Z,20.10
2023-01-01T03:27:44.406Z,19.40
2023-01-01T03:30:13.944Z,19.90
2023-01-01T03:33:00.561Z,20.60
2023-01-01T03:35:53.633Z,18.83
2023-01-01T03:38:40.526Z,18.10
2023-01-01T03:41:15.550Z,17.60
2023-01-01T03:44:07.699Z,17.90
2023-01-01T03:46:37.031Z,18.47
2023-01-01T03:49:08.312Z,17.60
2023-01-01T03:52:03.086Z,16.97
2023-01-01T03:54:44.786Z,16.40
2023-01-01T03:57:36.037Z,16.63
2023-01-01T04:00:14.796Z,17.70
2023-01-01T04:03:03.221Z,16.60
2023-01-01T04:05:35.812Z,18.63
2023-01-01T04:08:04.110Z,18.00
2023-01-01T04:10:36.311Z,17.50
2023-01-01T04:13:06.414Z,16.97
2023-01-01T04:15:35.847Z,18.67
2023-01-01T04:18:03.140Z,16.93
2023-01-01T04:20:30.520Z,17.17
2023-01-01T04:23:01.815Z,17.73
2023-01-01T04:25:29.070Z,16.97
2023-01-01T04:27:56.235Z,16.83
2023-01-01T04:30:23.172Z,18.00
2023-01-01T04:32:50.137Z,16.90
2023-01-01T04:35:17.250Z,16.70
2023-01-01T04:37:46.062Z,15.13
2023-01-01T04:40:14.074Z,15.70
2023-01-01T04:42:41.422Z,17.47
2023-01-01T04:45:09.121Z,15.07
2023-01-01T04:47:36.100Z,14.63
2023-01-01T04:50:03.076Z,14.80
2023-01-01T04:52:30.017Z,13.07
2023-01-01T04:54:57.069Z,14.00
2023-01-01T04:57:23.985Z,12.97
2023-01-01T04:59:50.896Z,12.37
2023-01-01T05:02:17.907Z,12.83
2023-01-01T05:04:44.898Z,13.27
2023-01-01T05:07:11.823Z,12.60
2023-01-01T05:09:38.776Z,12.03
2023-01-01T05:12:06.074Z,11.80
2023-01-01T05:14:33.841Z,11.40
2023-01-01T05:17:00.800Z,11.10
2023-01-01T05:19:27.669Z,10.13
2023-01-01T05:21:55.748Z,10.00
2023-01-01T05:24:22.775Z,8.93
2023-01-01T05:26:49.666Z,10.43
2023-01-01T05:29:17.533Z,9.90
2023-01-01T05:31:45.827Z,9.17
2023-01-01T05:34:13.227Z,9.60
2023-01-01T05:36:40.233Z,9.80
2023-01-01T05:39:11.199Z,10.13
2023-01-01T05:41:38.487Z,9.30
2023-01-01T05:44:07.371Z,8.77
2023-01-01T05:46:34.995Z,9.00
2023-01-01T05:49:01.922Z,8.63
2023-01-01T05:53:58.583Z,8.23
2023-01-01T05:56:26.892Z,9.53
2023-01-01T05:58:55.254Z,8.60
2023-01-01T06:01:31.807Z,11.40
2023-01-01T06:03:59.908Z,12.40
2023-01-01T06:06:33.351Z,12.50
2023-01-01T06:09:05.374Z,10.93
2023-01-01T06:11:32.998Z,11.70
2023-01-01T06:14:00.880Z,12.57
2023-01-01T06:16:31.750Z,13.97
2023-01-01T06:18:59.921Z,12.30
2023-01-01T06:21:28.809Z,12.23
2023-01-01T06:23:58.613Z,12.83
2023-01-01T06:26:29.910Z,12.73
2023-01-01T06:28:58.260Z,11.33
2023-01-01T06:31:26.279Z,11.93
2023-01-01T06:33:53.485Z,12.60
2023-01-01T06:36:23.659Z,12.20
2023-01-01T06:38:55.327Z,12.07
2023-01-01T06:41:25.224Z,12.10
2023-01-01T06:43:52.516Z,11.77
2023-01-01T06:46:21.816Z,11.83
2023-01-01T06:48:52.722Z,12.07
2023-01-01T06:51:23.203Z,12.30
2023-01-01T06:53:52.270Z,12.97
2023-01-01T06:56:20.527Z,12.20
2023-01-01T06:58:47.721Z,13.57
2023-01-01T07:01:25.751Z,12.57
2023-01-01T07:04:05.351Z,10.50
2023-01-01T07:06:33.612Z,11.27
2023-01-01T07:09:01.315Z,11.00
2023-01-01T07:11:28.942Z,9.93
2023-01-01T07:13:56.012Z,12.03
2023-01-01T07:16:24.446Z,11.33
2023-01-01T07:18:52.061Z,10.33
2023-01-01T07:21:30.633Z,11.00
2023-01-01T07:24:03.658Z,10.90
2023-01-01T07:26:32.846Z,10.30
2023-01-01T07:29:06.743Z,11.70
2023-01-01T07:31:42.999Z,10.47
2023-01-01T07:34:16.876Z,7.53
2023-01-01T07:36:43.860Z,8.40
2023-01-01T07:39:10.862Z,8.93
2023-01-01T07:41:38.013Z,9.70
2023-01-01T07:44:05.308Z,8.80
2023-01-01T07:46:35.976Z,10.03
2023-01-01T07:49:03.100Z,7.93
2023-01-01T07:51:30.116Z,9.13
2023-01-01T07:54:02.215Z,10.03
2023-01-01T07:56:31.041Z,9.47
2023-01-01T07:58:57.953Z,8.40
2023-01-01T08:01:24.945Z,8.63
2023-01-01T08:03:52.875Z,8.40
2023-01-01T08:06:20.061Z,9.57
2023-01-01T08:08:46.929Z,9.30
2023-01-01T08:11:13.870Z,8.53
2023-01-01T08:13:40.885Z,8.77
2023-01-01T08:16:08.102Z,8.70
2023-01-01T08:18:35.279Z,8.67
2023-01-01T08:21:03.011Z,9.40
2023-01-01T08:23:30.027Z,8.70
2023-01-01T08:26:02.846Z,8.10
2023-01-01T08:28:30.971Z,8.50
2023-01-01T08:30:58.034Z,10.40
2023-01-01T08:33:26.194Z,9.90
2023-01-01T08:35:54.625Z,9.77
2023-01-01T08:38:21.990Z,8.10
2023-01-01T08:40:48.956Z,8.83
2023-01-01T08:43:15.966Z,9.20
2023-01-01T08:45:43.199Z,9.70
2023-01-01T08:48:10.112Z,8.23
2023-01-01T08:50:37.457Z,9.73
2023-01-01T08:53:04.571Z,9.20
2023-01-01T08:55:31.576Z,9.27
2023-01-01T08:57:58.481Z,7.93
2023-01-01T09:00:25.474Z,9.03
2023-01-01T09:02:52.618Z,8.87
2023-01-01T09:05:19.690Z,7.97
2023-01-01T09:07:46.595Z,7.60
2023-01-01T09:10:13.489Z,8.43
2023-01-01T09:12:40.339Z,9.03
2023-01-01T09:15:14.852Z,11.20
2023-01-01T09:17:41.785Z,10.10
2023-01-01T09:20:09.133Z,8.97
2023-01-01T09:22:36.215Z,10.63
2023-01-01T09:25:03.293Z,9.50
2023-01-01T09:27:30.252Z,9.43
2023-01-01T09:29:57.161Z,8.97
2023-01-01T09:32:24.272Z,9.37
2023-01-01T09:34:52.692Z,10.57
2023-01-01T09:37:19.794Z,8.30
2023-01-01T09:39:46.810Z,8.20
2023-01-01T09:42:49.753Z,9.17
2023-01-01T09:45:27.632Z,9.27
2023-01-01T09:48:06.210Z,8.47
2023-01-01T09:50:39.771Z,9.37
2023-01-01T09:53:48.223Z,9.30
2023-01-01T09:56:23.007Z,9.03
2023-01-01T09:58:50.319Z,10.00
2023-01-01T10:01:49.383Z,9.90
2023-01-01T10:05:03.763Z,9.17
2023-01-01T10:07:46.451Z,9.10
2023-01-01T10:10:38.702Z,10.03
2023-01-01T10:13:22.900Z,9.20
2023-01-01T10:16:24.581Z,9.40
2023-01-01T10:18:56.804Z,11.10
2023-01-01T10:21:32.214Z,9.70
2023-01-01T10:24:06.854Z,10.03
2023-01-01T10:26:37.686Z,10.10
2023-01-01T10:29:28.859Z,10.20
2023-01-01T10:31:58.538Z,10.20
2023-01-01T10:34:28.970Z,10.20
2023-01-01T10:37:00.733Z,9.53
2023-01-01T10:39:29.030Z,10.83
2023-01-01T10:41:58.391Z,10.07
2023-01-01T10:44:34.624Z,10.77
2023-01-01T10:47:23.639Z,10.27
2023-01-01T10:50:05.244Z,10.30
2023-01-01T10:52:41.153Z,11.80
2023-01-01T10:55:22.044Z,11.53
2023-01-01T10:57:48.912Z,11.07
2023-01-01T11:00:24.448Z,11.17
2023-01-01T11:03:26.874Z,10.50
2023-01-01T11:06:10.858Z,10.60
2023-01-01T11:08:41.463Z,10.17
2023-01-01T11:11:28.789Z,10.13
2023-01-01T11:13:59.985Z,10.70
2023-01-01T11:16:28.560Z,10.07
2023-01-01T11:19:08.204Z,10.83
2023-01-01T11:21:35.869Z,12.07
2023-01-01T11:24:34.317Z,10.20
2023-01-01T11:27:22.671Z,11.23
2023-01-01T11:29:54.706Z,11.00
2023-01-01T11:32:31.677Z,11.10
2023-01-01T11:35:03.870Z,9.33
2023-01-01T11:37:36.006Z,10.33
2023-01-01T11:40:06.199Z,10.83
2023-01-01T11:42:35.919Z,10.47
2023-01-01T11:45:39.741Z,10.87
2023-01-01T11:48:16.073Z,9.67
2023-01-01T11:50:54.252Z,10.93
2023-01-01T11:53:26.944Z,11.47
2023-01-01T11:56:18.807Z,11.20
2023-01-01T11:58:59.733Z,11.20
2023-01-01T12:01:49.375Z,10.97
2023-01-01T12:04:34.590Z,11.80
2023-01-01T12:07:09.728Z,11.40
2023-01-01T12:10:02.191Z,11.33
2023-01-01T12:12:48.894Z,11.77
2023-01-01T12:15:41.770Z,10.80
2023-01-01T12:18:44.931Z,11.73
2023-01-01T12:21:29.160Z,11.60
2023-01-01T12:23:56.254Z,11.67
2023-01-01T12:26:41.149Z,11.90
2023-01-01T12:29:39.525Z,12.90
2023-01-01T12:32:27.955Z,12.53
2023-01-01T12:35:14.673Z,12.33
2023-01-01T12:38:02.632Z,12.70
2023-01-01T12:41:06.749Z,12.40
2023-01-01T12:43:47.795Z,13.07
2023-01-01T12:46:38.117Z,13.10
2023-01-01T12:49:47.428Z,12.97
2023-01-01T12:52:29.847Z,12.43
2023-01-01T12:55:53.035Z,12.43
2023-01-01T12:58:41.227Z,12.40
2023-01-01T13:01:17.088Z,11.70
2023-01-01T13:04:00.538Z,13.57
2023-01-01T13:06:44.060Z,12.40
2023-01-01T13:09:23.512Z,13.43
2023-01-01T13:11:57.843Z,26.00
2023-01-01T13:14:24.891Z,20.47
2023-01-01T13:16:57.429Z,14.67
2023-01-01T13:19:37.592Z,12.93
2023-01-01T13:22:26.311Z,12.73
2023-01-01T13:25:10.801Z,13.27
2023-01-01T13:28:04.515Z,12.90
2023-01-01T13:30:37.463Z,12.40
2023-01-01T13:33:27.086Z,13.30
2023-01-01T13:36:12.161Z,12.03
2023-01-01T13:38:57.065Z,13.30
2023-01-01T13:41:27.279Z,14.00
2023-01-01T13:43:59.970Z,12.40
2023-01-01T13:51:03.891Z,14.60
2023-01-01T13:54:12.100Z,17.07
2023-01-01T13:57:04.115Z,16.07
2023-01-01T13:59:46.390Z,13.93
2023-01-01T14:02:43.781Z,13.27
2023-01-01T14:05:33.505Z,13.63
2023-01-01T14:08:00.580Z,13.70
2023-01-01T14:10:33.387Z,12.57
2023-01-01T14:13:06.022Z,13.17
2023-01-01T14:15:39.873Z,15.10
2023-01-01T14:18:18.003Z,13.60
2023-01-01T14:20:52.899Z,13.43
2023-01-01T14:23:35.867Z,13.70
2023-01-01T14:26:08.918Z,15.53
2023-01-01T14:28:36.751Z,15.90
2023-01-01T14:31:14.418Z,14.80
2023-01-01T14:33:41.416Z,14.00
2023-01-01T14:36:34.749Z,13.73
2023-01-01T14:39:01.728Z,12.97
2023-01-01T14:41:34.858Z,15.53
2023-01-01T14:44:07.741Z,13.60
2023-01-01T14:46:49.848Z,13.07
2023-01-01T14:49:29.641Z,14.20
2023-01-01T14:52:18.189Z,12.70
2023-01-01T14:54:47.150Z,12.83
2023-01-01T14:57:24.505Z,13.40
2023-01-01T14:59:54.630Z,14.87
2023-01-01T15:02:24.942Z,15.63
2023-01-01T15:04:52.687Z,16.20
2023-01-01T15:07:25.559Z,16.47
2023-01-01T15:09:55.133Z,15.40
2023-01-01T15:12:23.149Z,14.63
2023-01-01T15:14:53.339Z,15.70
2023-01-01T15:17:25.243Z,16.20
2023-01-01T15:20:22.138Z,17.83
2023-01-01T15:22:50.448Z,16.97
2023-01-01T15:25:19.675Z,17.30
2023-01-01T15:27:53.987Z,16.80
2023-01-01T15:30:33.754Z,18.10
2023-01-01T15:33:09.016Z,18.30
2023-01-01T15:35:38.090Z,18.40
2023-01-01T15:38:34.300Z,29.13
2023-01-01T15:41:40.414Z,33.83
2023-01-01T15:44:29.709Z,26.60
2023-01-01T15:47:15.701Z,22.10
2023-01-01T15:49:42.675Z,17.70
2023-01-01T15:52:29.414Z,18.57
2023-01-01T15:54:56.369Z,19.90
2023-01-01T15:57:24.165Z,20.77
2023-01-01T15:59:53.667Z,22.10
2023-01-01T16:02:36.444Z,53.70
2023-01-01T16:05:03.700Z,33.60
2023-01-01T16:07:31.748Z,26.10
2023-01-01T16:09:58.720Z,24.03
2023-01-01T16:12:25.717Z,23.53
2023-01-01T16:14:52.601Z,23.30
2023-01-01T16:17:20.800Z,23.13
2023-01-01T16:19:48.443Z,23.27
2023-01-01T16:22:17.611Z,23.30
2023-01-01T16:24:45.906Z,22.40
2023-01-01T16:27:13.075Z,20.27
2023-01-01T16:29:43.331Z,23.27
2023-01-01T16:32:18.484Z,23.70
2023-01-01T16:34:45.464Z,21.13
2023-01-01T16:37:12.471Z,19.87
2023-01-01T16:39:39.429Z,21.37
2023-01-01T16:42:09.768Z,21.40
2023-01-01T16:44:41.189Z,22.10
2023-01-01T16:47:08.643Z,25.97
2023-01-01T16:49:35.823Z,21.80
2023-01-01T16:52:03.305Z,21.40
2023-01-01T16:54:30.238Z,22.33
2023-01-01T16:56:57.225Z,24.20
2023-01-01T16:59:24.445Z,24.87
2023-01-01T17:01:51.453Z,23.17
2023-01-01T17:04:18.567Z,24.93
2023-01-01T17:06:45.568Z,27.03
2023-01-01T17:09:13.556Z,26.47
2023-01-01T17:11:40.877Z,27.83
2023-01-01T17:14:10.439Z,27.83
2023-01-01T17:16:40.007Z,28.30
2023-01-01T17:19:16.804Z,26.87
2023-01-01T17:21:46.389Z,27.70
2023-01-01T17:24:15.562Z,27.00
2023-01-01T17:26:43.180Z,27.93
2023-01-01T17:29:11.860Z,26.77
2023-01-01T17:31:38.911Z,26.67
2023-01-01T17:34:05.925Z,25.40
2023-01-01T17:36:32.906Z,27.70
2023-01-01T17:38:59.828Z,26.13
2023-01-01T17:41:26.737Z,24.63
2023-01-01T17:43:53.792Z,28.20
2023-01-01T17:46:33.514Z,26.33
2023-01-01T17:49:01.479Z,25.73
2023-01-01T17:51:28.955Z,25.57
2023-01-01T17:53:56.721Z,24.20
2023-01-01T17:56:24.819Z,19.80
2023-01-01T17:58:53.672Z,21.80
2023-01-01T18:01:23.772Z,23.40
2023-01-01T18:03:57.377Z,23.07
2023-01-01T18:06:24.628Z,23.53
2023-01-01T18:08:56.501Z,25.50
2023-01-01T18:11:24.071Z,23.50
2023-01-01T18:13:51.206Z,22.00
2023-01-01T18:16:18.391Z,20.23
2023-01-01T18:18:45.377Z,18.60
2023-01-01T18:21:19.379Z,19.63
2023-01-01T18:23:47.542Z,18.60
2023-01-01T18:26:14.616Z,16.10
2023-01-01T18:28:41.873Z,15.03
2023-01-01T18:31:10.085Z,15.00
2023-01-01T18:33:38.099Z,16.60
2023-01-01T18:36:12.069Z,16.97
2023-01-01T18:38:42.453Z,16.77
2023-01-01T18:41:33.973Z,16.27
2023-01-01T18:44:00.972Z,15.87
2023-01-01T18:46:32.744Z,16.57
2023-01-01T18:49:00.679Z,17.13
2023-01-01T18:51:27.688Z,26.27
2023-01-01T18:53:59.287Z,18.80
2023-01-01T18:56:26.574Z,15.70
2023-01-01T18:58:56.433Z,15.17
2023-01-01T19:01:24.796Z,17.90
2023-01-01T19:03:56.698Z,15.00
2023-01-01T19:06:31.363Z,15.90
2023-01-01T19:09:24.262Z,15.40
2023-01-01T19:11:54.178Z,16.47
2023-01-01T19:14:24.409Z,16.90
2023-01-01T19:16:57.801Z,16.73
2023-01-01T19:19:26.707Z,20.53
2023-01-01T19:22:13.372Z,17.03
2023-01-01T19:24:43.345Z,14.73
2023-01-01T19:27:18.221Z,15.80
2023-01-01T19:29:47.940Z,15.43
2023-01-01T19:32:15.467Z,14.87
2023-01-01T19:34:42.483Z,17.30
2023-01-01T19:37:10.005Z,16.67
2023-01-01T19:39:38.754Z,16.47
2023-01-01T19:42:07.050Z,15.47
2023-01-01T19:44:35.713Z,15.40
2023-01-01T19:47:06.364Z,16.70
2023-01-01T19:49:33.376Z,15.47
2023-01-01T19:52:00.331Z,15.83
2023-01-01T19:54:27.297Z,15.60
2023-01-01T19:56:54.214Z,16.80
2023-01-01T19:59:21.204Z,17.17
2023-01-01T20:02:09.960Z,17.80
2023-01-01T20:04:35.139Z,15.97
2023-01-01T20:07:02.073Z,18.20
2023-01-01T20:09:29.068Z,17.10
2023-01-01T20:11:56.660Z,16.80
2023-01-01T20:14:23.582Z,17.00
2023-01-01T20:16:53.613Z,16.00
2023-01-01T20:19:20.621Z,14.90
2023-01-01T20:22:05.589Z,14.63
2023-01-01T20:24:32.508Z,15.13
2023-01-01T20:27:01.393Z,14.63
2023-01-01T20:29:28.473Z,13.80
2023-01-01T20:31:56.076Z,14.10
2023-01-01T20:34:23.657Z,16.77
2023-01-01T20:37:09.901Z,13.00
2023-01-01T20:39:37.051Z,12.53
2023-01-01T20:42:04.175Z,12.87
2023-01-01T20:44:31.123Z,12.10
2023-01-01T20:46:58.278Z,13.63
2023-01-01T20:49:25.207Z,12.57
2023-01-01T20:51:53.365Z,11.57
2023-01-01T20:54:22.473Z,12.90
2023-01-01T20:56:50.084Z,13.23
2023-01-01T20:59:34.657Z,15.00
2023-01-01T21:02:02.362Z,17.10
2023-01-01T21:04:29.463Z,18.10
2023-01-01T21:06:56.519Z,15.97
2023-01-01T21:09:23.411Z,15.13
2023-01-01T21:11:50.474Z,16.00
2023-01-01T21:14:19.954Z,17.73
2023-01-01T21:16:47.103Z,20.60
2023-01-01T21:19:14.358Z,13.27
2023-01-01T21:21:50.229Z,13.03
2023-01-01T21:24:26.533Z,13.67
2023-01-01T21:27:15.392Z,12.67
2023-01-01T21:29:51.462Z,13.00
2023-01-01T21:32:39.106Z,13.33
2023-01-01T21:35:35.111Z,13.27
2023-01-01T21:38:16.066Z,12.67
2023-01-01T21:40:55.116Z,15.23
2023-01-01T21:43:50.244Z,13.67
2023-01-01T21:46:24.759Z,13.60
2023-01-01T21:49:06.024Z,14.43
2023-01-01T21:51:43.321Z,15.37
2023-01-01T21:54:10.442Z,12.40
2023-01-01T21:56:40.447Z,13.60
2023-01-01T21:59:25.869Z,13.40
2023-01-01T22:02:07.826Z,14.30
2023-01-01T22:04:42.510Z,12.60
2023-01-01T22:10:40.067Z,12.60
2023-01-01T22:13:15.407Z,11.57
2023-01-01T22:15:42.804Z,11.40
2023-01-01T22:18:09.671Z,11.37
2023-01-01T22:20:40.652Z,11.70
2023-01-01T22:23:19.504Z,16.43
2023-01-01T22:25:47.793Z,14.67
2023-01-01T22:28:24.047Z,14.50
2023-01-01T22:31:01.099Z,12.80
2023-01-01T22:33:42.680Z,10.63
2023-01-01T22:36:23.060Z,10.57
2023-01-01T22:38:50.146Z,9.80
2023-01-01T22:41:17.022Z,10.27
2023-01-01T22:43:45.908Z,8.80
2023-01-01T22:46:34.898Z,10.20
2023-01-01T22:49:37.303Z,9.87
2023-01-01T22:52:05.048Z,9.23
2023-01-01T22:54:33.715Z,9.20
2023-01-01T22:57:00.649Z,8.07
2023-01-01T22:59:27.623Z,8.13
2023-01-01T23:01:54.668Z,7.97
2023-01-01T23:04:21.583Z,7.97
2023-01-01T23:06:48.711Z,7.90
2023-01-01T23:09:15.586Z,7.60
2023-01-01T23:11:42.481Z,7.83
2023-01-01T23:14:27.702Z,7.93
2023-01-01T23:16:54.727Z,9.20
2023-01-01T23:19:21.782Z,8.47
2023-01-01T23:21:48.843Z,7.30
2023-01-01T23:24:19.783Z,8.27
2023-01-01T23:26:48.085Z,8.40
2023-01-01T23:29:15.881Z,8.93
2023-01-01T23:31:43.869Z,9.70
2023-01-01T23:34:11.980Z,8.20
2023-01-01T23:36:39.718Z,8.90
2023-01-01T23:39:06.684Z,8.60
2023-01-01T23:41:33.594Z,9.87
2023-01-01T23:44:00.610Z,9.30
2023-01-01T23:46:27.641Z,8.83
2023-01-01T23:48:55.448Z,8.73
2023-01-01T23:51:22.417Z,10.00
2023-01-01T23:53:49.391Z,8.80
2023-01-01T23:56:16.439Z,10.23
2023-01-01T23:58:43.305Z,8.90
